createdAt,value
2023-09-04T00:02:01.377Z,100246.89
2023-09-04T00:04:29.588Z,100242.89
2023-09-04T00:06:57.730Z,100240.02
2023-09-04T00:09:25.640Z,100240.55
2023-09-04T00:11:53.587Z,100236.98
2023-09-04T00:14:21.591Z,100231.92
2023-09-04T00:16:49.508Z,100231.08
2023-09-04T00:19:18.675Z,100230.97
2023-09-04T00:21:46.779Z,100229.48
2023-09-04T00:24:14.851Z,100230.38
2023-09-04T00:26:42.792Z,100230.09
2023-09-04T00:29:10.949Z,100224.39
2023-09-04T00:31:38.926Z,100223.86
2023-09-04T00:34:07.093Z,100224.92
2023-09-04T00:36:35.068Z,100221.00
2023-09-04T00:39:03.796Z,100225.41
2023-09-04T00:41:31.773Z,100223.92
2023-09-04T00:43:59.768Z,100226.65
2023-09-04T00:46:28.048Z,100230.08
2023-09-04T00:48:56.243Z,100237.23
2023-09-04T00:51:24.596Z,100236.58
2023-09-04T00:53:52.826Z,100236.26
2023-09-04T00:56:21.432Z,100236.82
2023-09-04T00:58:50.072Z,100236.30
2023-09-04T01:01:19.842Z,100233.70
2023-09-04T01:03:48.031Z,100237.83
2023-09-04T01:06:16.637Z,100237.59
2023-09-04T01:08:44.758Z,100240.00
2023-09-04T01:11:20.499Z,100238.33
2023-09-04T01:13:52.101Z,100238.40
2023-09-04T01:16:21.027Z,100240.61
2023-09-04T01:18:49.926Z,100239.55
2023-09-04T01:21:18.185Z,100236.84
2023-09-04T01:23:46.194Z,100235.23
2023-09-04T01:26:28.170Z,100237.36
2023-09-04T01:29:14.838Z,100231.59
2023-09-04T01:31:52.135Z,100227.77
2023-09-04T01:34:33.862Z,100232.83
2023-09-04T01:37:02.447Z,100237.48
2023-09-04T01:39:31.355Z,100240.05
2023-09-04T01:41:59.291Z,100241.92
2023-09-04T01:44:27.277Z,100240.58
2023-09-04T01:46:55.396Z,100242.88
2023-09-04T01:49:23.352Z,100243.82
2023-09-04T01:51:52.984Z,100245.19
2023-09-04T01:54:20.944Z,100236.27
2023-09-04T01:56:49.919Z,100235.48
2023-09-04T01:59:18.250Z,100229.90
2023-09-04T02:01:46.200Z,100226.27
2023-09-04T02:04:14.192Z,100227.63
2023-09-04T02:06:42.701Z,100230.39
2023-09-04T02:09:10.696Z,100226.85
2023-09-04T02:11:38.616Z,100224.70
2023-09-04T02:14:06.862Z,100225.36
2023-09-04T02:16:34.902Z,100224.94
2023-09-04T02:19:02.844Z,100224.52
2023-09-04T02:21:30.836Z,100219.70
2023-09-04T02:23:58.758Z,100226.17
2023-09-04T02:26:26.718Z,100227.20
2023-09-04T02:28:54.869Z,100228.40
2023-09-04T02:31:22.964Z,100229.02
2023-09-04T02:33:53.336Z,100231.77
2023-09-04T02:36:24.283Z,100226.92
2023-09-04T02:38:52.249Z,100224.31
2023-09-04T02:41:20.188Z,100231.32
2023-09-04T02:43:48.152Z,100238.27
2023-09-04T02:46:16.110Z,100243.18
2023-09-04T02:48:44.040Z,100249.33
2023-09-04T02:51:11.938Z,100247.48
2023-09-04T02:53:40.013Z,100236.20
2023-09-04T02:56:08.073Z,100230.25
2023-09-04T02:58:36.037Z,100232.08
2023-09-04T03:01:04.015Z,100232.25
2023-09-04T03:03:32.953Z,100238.14
2023-09-04T03:06:11.120Z,100236.46
2023-09-04T03:08:40.316Z,100242.23
2023-09-04T03:11:10.878Z,100250.64
2023-09-04T03:13:39.171Z,100252.80
2023-09-04T03:16:08.021Z,100255.40
2023-09-04T03:18:36.329Z,100257.84
2023-09-04T03:21:05.609Z,100262.23
2023-09-04T03:23:33.996Z,100268.56
2023-09-04T03:26:03.559Z,100268.53
2023-09-04T03:28:31.689Z,100266.52
2023-09-04T03:30:59.887Z,100268.21
2023-09-04T03:33:28.150Z,100259.58
2023-09-04T03:35:58.869Z,100262.98
2023-09-04T03:38:27.087Z,100257.08
2023-09-04T03:40:55.006Z,100254.55
2023-09-04T03:43:23.054Z,100256.41
2023-09-04T03:45:53.367Z,100261.85
2023-09-04T03:48:21.348Z,100264.91
2023-09-04T03:50:49.394Z,100279.17
2023-09-04T03:53:17.342Z,100281.48
2023-09-04T03:55:45.356Z,100284.14
2023-09-04T03:58:13.638Z,100288.75
2023-09-04T04:00:41.889Z,100283.27
2023-09-04T04:03:11.046Z,100275.16
2023-09-04T04:05:39.895Z,100265.51
2023-09-04T04:08:07.841Z,100267.26
2023-09-04T04:10:35.795Z,100274.14
2023-09-04T04:13:03.924Z,100280.89
2023-09-04T04:15:31.949Z,100293.60
2023-09-04T04:17:59.938Z,100298.34
2023-09-04T04:20:27.912Z,100295.98
2023-09-04T04:22:56.008Z,100298.65
2023-09-04T04:25:24.602Z,100303.29
2023-09-04T04:27:52.600Z,100302.64
2023-09-04T04:30:20.561Z,100299.96
2023-09-04T04:32:50.927Z,100295.95
2023-09-04T04:35:19.160Z,100293.65
2023-09-04T04:37:47.127Z,100298.73
2023-09-04T04:40:21.318Z,100308.76
2023-09-04T04:42:49.431Z,100313.70
2023-09-04T04:45:17.557Z,100317.16
2023-09-04T04:47:45.704Z,100313.62
2023-09-04T04:50:14.377Z,100310.08
2023-09-04T04:52:42.546Z,100309.75
2023-09-04T04:55:10.848Z,100306.29
2023-09-04T04:57:40.935Z,100308.58
2023-09-04T05:00:09.817Z,100317.04
2023-09-04T05:02:38.413Z,100320.63
2023-09-04T05:05:08.391Z,100324.51
2023-09-04T05:07:36.959Z,100324.83
2023-09-04T05:10:06.756Z,100335.27
2023-09-04T05:12:34.754Z,100336.88
2023-09-04T05:15:02.886Z,100341.87
2023-09-04T05:17:32.118Z,100345.69
2023-09-04T05:20:00.168Z,100350.83
2023-09-04T05:22:28.263Z,100353.12
2023-09-04T05:24:56.302Z,100352.17
2023-09-04T05:27:24.683Z,100353.05
2023-09-04T05:29:52.846Z,100354.73
2023-09-04T05:32:20.830Z,100350.08
2023-09-04T05:34:53.142Z,100347.74
2023-09-04T05:37:22.154Z,100349.21
2023-09-04T05:39:50.531Z,100347.20
2023-09-04T05:42:18.624Z,100348.88
2023-09-04T05:44:46.610Z,100348.72
2023-09-04T05:47:14.563Z,100343.77
2023-09-04T05:49:43.644Z,100334.02
2023-09-04T05:52:11.656Z,100337.08
2023-09-04T05:54:39.588Z,100338.38
2023-09-04T05:57:07.576Z,100339.33
2023-09-04T05:59:35.515Z,100342.54
2023-09-04T06:02:03.584Z,100337.16
2023-09-04T06:04:31.739Z,100337.75
2023-09-04T06:06:59.646Z,100334.48
2023-09-04T06:09:27.615Z,100340.87
2023-09-04T06:11:55.573Z,100343.56
2023-09-04T06:14:23.555Z,100341.64
2023-09-04T06:16:51.533Z,100343.82
2023-09-04T06:19:19.464Z,100347.34
2023-09-04T06:21:47.459Z,100348.15
2023-09-04T06:24:15.404Z,100355.62
2023-09-04T06:26:43.337Z,100354.87
2023-09-04T06:29:11.316Z,100351.53
2023-09-04T06:31:39.410Z,100351.35
2023-09-04T06:34:07.426Z,100350.17
2023-09-04T06:36:35.468Z,100348.14
2023-09-04T06:39:07.449Z,100345.13
2023-09-04T06:41:35.503Z,100342.80
2023-09-04T06:44:04.813Z,100343.11
2023-09-04T06:46:33.478Z,100341.98
2023-09-04T06:49:01.487Z,100343.13
2023-09-04T06:51:30.325Z,100339.38
2023-09-04T06:53:58.398Z,100334.28
2023-09-04T06:56:26.391Z,100331.02
2023-09-04T06:58:55.180Z,100325.72
2023-09-04T07:01:23.436Z,100331.71
2023-09-04T07:03:51.506Z,100338.86
2023-09-04T07:06:19.457Z,100343.38
2023-09-04T07:08:47.818Z,100350.63
2023-09-04T07:11:15.776Z,100351.65
2023-09-04T07:13:43.840Z,100349.91
2023-09-04T07:16:19.845Z,100339.44
2023-09-04T07:18:59.006Z,100336.51
2023-09-04T07:21:27.060Z,100336.53
2023-09-04T07:23:55.012Z,100339.98
2023-09-04T07:26:22.981Z,100339.70
2023-09-04T07:28:51.189Z,100339.69
2023-09-04T07:31:20.820Z,100343.99
2023-09-04T07:33:50.286Z,100357.40
2023-09-04T07:36:18.797Z,100363.63
2023-09-04T07:38:47.381Z,100367.07
2023-09-04T07:41:15.385Z,100365.25
2023-09-04T07:43:43.343Z,100371.45
2023-09-04T07:46:11.430Z,100370.36
2023-09-04T07:48:39.935Z,100370.51
2023-09-04T07:51:23.455Z,100365.37
2023-09-04T07:53:55.917Z,100363.38
2023-09-04T07:56:25.170Z,100365.90
2023-09-04T07:58:53.904Z,100363.27
2023-09-04T08:01:21.919Z,100366.80
2023-09-04T08:03:50.037Z,100370.02
2023-09-04T08:06:18.029Z,100368.79
2023-09-04T08:08:45.949Z,100369.84
2023-09-04T08:11:13.893Z,100365.38
2023-09-04T08:13:41.998Z,100360.91
2023-09-04T08:16:09.983Z,100364.66
2023-09-04T08:18:38.029Z,100367.30
2023-09-04T08:21:06.000Z,100369.98
2023-09-04T08:23:34.015Z,100380.72
2023-09-04T08:26:02.762Z,100376.02
2023-09-04T08:28:31.108Z,100375.27
2023-09-04T08:30:59.327Z,100375.40
2023-09-04T08:33:27.502Z,100375.58
2023-09-04T08:35:56.671Z,100376.63
2023-09-04T08:38:24.640Z,100376.05
2023-09-04T08:40:56.111Z,100374.40
2023-09-04T08:43:26.420Z,100374.77
2023-09-04T08:45:55.232Z,100382.13
2023-09-04T08:48:26.406Z,100381.59
2023-09-04T08:50:55.600Z,100385.73
2023-09-04T08:53:24.797Z,100387.66
2023-09-04T08:55:55.996Z,100386.39
2023-09-04T08:58:29.175Z,100392.23
2023-09-04T09:01:01.080Z,100390.37
2023-09-04T09:03:44.132Z,100385.20
2023-09-04T09:06:13.759Z,100384.10
2023-09-04T09:08:45.287Z,100381.38
2023-09-04T09:11:15.452Z,100386.05
2023-09-04T09:13:45.619Z,100393.28
2023-09-04T09:16:22.246Z,100394.58
2023-09-04T09:18:55.694Z,100392.26
2023-09-04T09:21:36.126Z,100383.50
2023-09-04T09:24:20.818Z,100383.27
2023-09-04T09:26:50.420Z,100377.45
2023-09-04T09:29:19.134Z,100377.21
2023-09-04T09:31:47.939Z,100374.61
2023-09-04T09:34:17.811Z,100371.84
2023-09-04T09:36:46.151Z,100373.33
2023-09-04T09:39:15.826Z,100375.70
2023-09-04T09:41:46.255Z,100376.56
2023-09-04T09:44:14.205Z,100374.21
2023-09-04T09:46:42.874Z,100372.02
2023-09-04T09:49:12.341Z,100368.30
2023-09-04T09:51:40.560Z,100362.93
2023-09-04T09:54:10.246Z,100368.52
2023-09-04T09:56:39.544Z,100373.95
2023-09-04T09:59:09.461Z,100372.55
2023-09-04T10:01:38.327Z,100370.77
2023-09-04T10:04:07.510Z,100362.49
2023-09-04T10:06:38.881Z,100361.45
2023-09-04T10:09:09.590Z,100357.51
2023-09-04T10:11:41.578Z,100351.74
2023-09-04T10:14:15.758Z,100353.97
2023-09-04T10:16:48.828Z,100351.34
2023-09-04T10:19:19.073Z,100343.23
2023-09-04T10:21:53.374Z,100339.69
2023-09-04T10:24:31.581Z,100339.43
2023-09-04T10:27:05.852Z,100334.66
2023-09-04T10:29:39.875Z,100334.68
2023-09-04T10:32:09.464Z,100330.39
2023-09-04T10:34:37.500Z,100331.80
2023-09-04T10:37:05.848Z,100327.01
2023-09-04T10:39:34.266Z,100323.08
2023-09-04T10:42:03.064Z,100323.73
2023-09-04T10:44:50.891Z,100326.15
2023-09-04T10:47:19.775Z,100324.99
2023-09-04T10:49:48.845Z,100321.92
2023-09-04T10:52:16.856Z,100322.95
2023-09-04T10:54:45.073Z,100317.70
2023-09-04T10:57:14.026Z,100315.14
2023-09-04T10:59:54.177Z,100318.36
2023-09-04T11:02:29.304Z,100318.91
2023-09-04T11:04:58.832Z,100326.27
2023-09-04T11:07:32.119Z,100320.13
2023-09-04T11:10:00.060Z,100325.17
2023-09-04T11:12:28.304Z,100320.55
2023-09-04T11:14:57.119Z,100315.84
2023-09-04T11:17:32.771Z,100317.58
2023-09-04T11:20:00.886Z,100317.23
2023-09-04T11:22:29.217Z,100316.27
2023-09-04T11:24:57.219Z,100317.30
2023-09-04T11:27:27.160Z,100315.53
2023-09-04T11:29:55.471Z,100317.15
2023-09-04T11:32:23.776Z,100318.42
2023-09-04T11:34:51.791Z,100317.86
2023-09-04T11:37:19.727Z,100318.61
2023-09-04T11:40:02.997Z,100319.73
2023-09-04T11:42:34.641Z,100324.58
2023-09-04T11:45:02.592Z,100323.41
2023-09-04T11:47:32.301Z,100317.50
2023-09-04T11:50:00.390Z,100314.21
2023-09-04T11:52:29.428Z,100313.52
2023-09-04T11:54:58.381Z,100316.08
2023-09-04T11:57:26.442Z,100311.63
2023-09-04T11:59:56.280Z,100311.59
2023-09-04T12:02:24.323Z,100300.55
2023-09-04T12:04:53.436Z,100300.91
2023-09-04T12:07:21.623Z,100302.10
2023-09-04T12:09:50.727Z,100299.96
2023-09-04T12:12:18.850Z,100295.33
2023-09-04T12:14:47.057Z,100286.36
2023-09-04T12:17:15.156Z,100292.09
2023-09-04T12:19:45.734Z,100297.61
2023-09-04T12:22:15.242Z,100298.44
2023-09-04T12:25:09.586Z,100293.27
2023-09-04T12:27:40.379Z,100294.92
2023-09-04T12:30:12.458Z,100299.82
2023-09-04T12:32:40.620Z,100301.64
2023-09-04T12:35:10.116Z,100294.51
2023-09-04T12:37:38.390Z,100296.94
2023-09-04T12:40:09.546Z,100296.86
2023-09-04T12:42:39.480Z,100298.34
2023-09-04T12:45:08.604Z,100300.13
2023-09-04T12:47:36.915Z,100293.55
2023-09-04T12:50:05.811Z,100297.66
2023-09-04T12:52:35.156Z,100295.23
2023-09-04T12:55:04.425Z,100291.75
2023-09-04T12:57:32.370Z,100287.35
2023-09-04T13:00:00.344Z,100280.85
2023-09-04T13:02:28.628Z,100280.73
2023-09-04T13:04:56.716Z,100278.25
2023-09-04T13:07:25.216Z,100275.81
2023-09-04T13:09:53.312Z,100277.95
2023-09-04T13:12:21.292Z,100271.52
2023-09-04T13:14:49.309Z,100267.55
2023-09-04T13:17:17.970Z,100266.37
2023-09-04T13:19:45.933Z,100258.21
2023-09-04T13:22:13.957Z,100250.63
2023-09-04T13:24:42.037Z,100248.08
2023-09-04T13:27:10.735Z,100246.11
2023-09-04T13:29:38.758Z,100245.21
2023-09-04T13:32:06.969Z,100240.25
2023-09-04T13:34:34.961Z,100243.87
2023-09-04T13:37:02.938Z,100243.85
2023-09-04T13:39:30.872Z,100242.05
2023-09-04T13:41:58.874Z,100233.77
2023-09-04T13:44:27.454Z,100235.46
2023-09-04T13:46:55.444Z,100230.77
2023-09-04T13:49:23.885Z,100227.45
2023-09-04T13:51:51.907Z,100222.79
2023-09-04T13:54:20.507Z,100226.29
2023-09-04T13:56:49.296Z,100220.77
2023-09-04T13:59:17.841Z,100222.29
2023-09-04T14:01:48.350Z,100218.50
2023-09-04T14:04:17.562Z,100219.19
2023-09-04T14:06:45.504Z,100218.86
2023-09-04T14:09:13.460Z,100220.90
2023-09-04T14:11:41.536Z,100218.93
2023-09-04T14:14:09.596Z,100215.02
2023-09-04T14:16:37.614Z,100213.66
2023-09-04T14:19:05.656Z,100214.06
2023-09-04T14:21:36.397Z,100209.29
2023-09-04T14:24:04.615Z,100206.59
2023-09-04T14:26:32.569Z,100209.41
2023-09-04T14:29:00.575Z,100201.12
2023-09-04T14:31:30.533Z,100200.29
2023-09-04T14:33:58.914Z,100201.02
2023-09-04T14:36:27.011Z,100202.20
2023-09-04T14:38:54.980Z,100202.77
2023-09-04T14:41:36.985Z,100200.06
2023-09-04T14:44:05.988Z,100198.94
2023-09-04T14:46:37.186Z,100205.73
2023-09-04T14:49:06.325Z,100214.04
2023-09-04T14:51:34.318Z,100206.20
2023-09-04T14:54:04.084Z,100207.66
2023-09-04T14:56:32.162Z,100205.78
2023-09-04T14:59:00.244Z,100203.37
2023-09-04T15:01:28.603Z,100205.84
2023-09-04T15:03:56.701Z,100203.98
2023-09-04T15:06:24.825Z,100205.19
2023-09-04T15:08:52.854Z,100200.55
2023-09-04T15:11:20.800Z,100198.98
2023-09-04T15:13:48.911Z,100199.69
2023-09-04T15:16:17.035Z,100196.23
2023-09-04T15:18:45.078Z,100197.04
2023-09-04T15:21:13.074Z,100191.68
2023-09-04T15:23:41.053Z,100190.02
2023-09-04T15:26:09.090Z,100192.08
2023-09-04T15:28:37.457Z,100194.73
2023-09-04T15:31:05.510Z,100198.08
2023-09-04T15:33:33.538Z,100198.64
2023-09-04T15:36:04.624Z,100201.44
2023-09-04T15:38:36.380Z,100197.48
2023-09-04T15:41:05.027Z,100202.07
2023-09-04T15:43:34.236Z,100201.23
2023-09-04T15:46:03.097Z,100203.57
2023-09-04T15:48:31.181Z,100204.19
2023-09-04T15:50:59.105Z,100208.05
2023-09-04T15:53:27.092Z,100204.02
2023-09-04T15:55:56.954Z,100201.86
2023-09-04T15:58:26.712Z,100206.13
2023-09-04T16:00:55.239Z,100200.21
2023-09-04T16:03:23.512Z,100194.34
2023-09-04T16:05:51.605Z,100193.91
2023-09-04T16:08:20.514Z,100191.54
2023-09-04T16:10:49.614Z,100193.56
2023-09-04T16:13:20.902Z,100193.36
2023-09-04T16:15:48.894Z,100196.20
2023-09-04T16:18:17.053Z,100198.85
2023-09-04T16:20:46.346Z,100195.96
2023-09-04T16:23:17.790Z,100194.77
2023-09-04T16:25:45.918Z,100192.67
2023-09-04T16:28:14.276Z,100192.82
2023-09-04T16:30:42.339Z,100194.88
2023-09-04T16:33:13.644Z,100191.95
2023-09-04T16:35:43.195Z,100187.25
2023-09-04T16:38:11.573Z,100190.67
2023-09-04T16:40:44.109Z,100192.60
2023-09-04T16:43:12.091Z,100193.77
2023-09-04T16:45:41.522Z,100192.05
2023-09-04T16:48:09.554Z,100199.63
2023-09-04T16:50:37.659Z,100199.11
2023-09-04T16:53:06.053Z,100201.54
2023-09-04T16:55:34.215Z,100203.02
2023-09-04T16:58:02.996Z,100204.10
2023-09-04T17:00:31.057Z,100204.30
2023-09-04T17:02:59.096Z,100205.27
2023-09-04T17:05:27.086Z,100211.55
2023-09-04T17:07:54.999Z,100210.04
2023-09-04T17:10:22.949Z,100213.21
2023-09-04T17:12:50.869Z,100215.46
2023-09-04T17:15:20.006Z,100214.17
2023-09-04T17:17:48.386Z,100214.37
2023-09-04T17:20:16.784Z,100211.73
2023-09-04T17:22:44.702Z,100210.86
2023-09-04T17:25:12.590Z,100207.30
2023-09-04T17:27:40.531Z,100207.67
2023-09-04T17:30:09.570Z,100206.11
2023-09-04T17:32:38.772Z,100206.76
2023-09-04T17:35:08.538Z,100211.97
2023-09-04T17:37:36.442Z,100212.05
2023-09-04T17:40:05.009Z,100214.05
2023-09-04T17:42:33.915Z,100214.56
2023-09-04T17:45:01.866Z,100214.02
2023-09-04T17:47:29.848Z,100214.77
2023-09-04T17:49:57.967Z,100212.98
2023-09-04T17:52:25.948Z,100215.48
2023-09-04T17:54:53.927Z,100217.98
2023-09-04T17:57:21.941Z,100219.08
2023-09-04T17:59:49.842Z,100220.55
2023-09-04T18:02:17.851Z,100221.02
2023-09-04T18:04:46.241Z,100223.88
2023-09-04T18:07:14.310Z,100225.05
2023-09-04T18:09:42.243Z,100221.38
2023-09-04T18:12:10.312Z,100220.95
2023-09-04T18:14:38.307Z,100222.15
2023-09-04T18:17:06.314Z,100223.86
2023-09-04T18:19:34.506Z,100222.55
2023-09-04T18:22:03.857Z,100228.73
2023-09-04T18:24:32.230Z,100229.92
2023-09-04T18:27:02.165Z,100228.52
2023-09-04T18:29:30.356Z,100232.71
2023-09-04T18:31:58.428Z,100229.99
2023-09-04T18:34:26.394Z,100231.06
2023-09-04T18:36:54.346Z,100230.98
2023-09-04T18:39:22.484Z,100232.08
2023-09-04T18:41:50.711Z,100233.84
2023-09-04T18:44:18.742Z,100236.70
2023-09-04T18:46:46.871Z,100236.66
2023-09-04T18:49:14.964Z,100233.48
2023-09-04T18:51:43.408Z,100232.42
2023-09-04T18:54:11.452Z,100229.19
2023-09-04T18:56:39.614Z,100232.73
2023-09-04T18:59:07.625Z,100232.85
2023-09-04T19:01:35.613Z,100231.52
2023-09-04T19:04:03.718Z,100227.30
2023-09-04T19:06:32.409Z,100228.71
2023-09-04T19:09:00.319Z,100231.17
2023-09-04T19:11:28.404Z,100227.48
2023-09-04T19:13:56.400Z,100223.94
2023-09-04T19:16:25.451Z,100222.02
2023-09-04T19:18:54.305Z,100221.73
2023-09-04T19:21:22.362Z,100220.77
2023-09-04T19:23:50.706Z,100225.02
2023-09-04T19:26:18.649Z,100223.92
2023-09-04T19:28:50.846Z,100223.08
2023-09-04T19:31:21.235Z,100223.52
2023-09-04T19:33:51.178Z,100221.02
2023-09-04T19:36:20.127Z,100221.41
2023-09-04T19:38:48.185Z,100223.98
2023-09-04T19:41:16.170Z,100226.16
2023-09-04T19:43:44.182Z,100225.43
2023-09-04T19:46:12.216Z,100223.98
2023-09-04T19:48:40.245Z,100225.46
2023-09-04T19:51:08.138Z,100226.33
2023-09-04T19:53:36.074Z,100225.38
2023-09-04T19:56:05.318Z,100226.04
2023-09-04T19:58:33.444Z,100227.76
2023-09-04T20:01:04.646Z,100233.14
2023-09-04T20:03:33.632Z,100236.95
2023-09-04T20:06:01.948Z,100238.59
2023-09-04T20:08:30.061Z,100241.45
2023-09-04T20:10:58.092Z,100244.30
2023-09-04T20:13:26.568Z,100244.60
2023-09-04T20:15:55.016Z,100247.13
2023-09-04T20:18:23.399Z,100245.52
2023-09-04T20:20:52.240Z,100247.77
2023-09-04T20:23:20.224Z,100247.77
2023-09-04T20:25:48.243Z,100247.98
2023-09-04T20:28:16.349Z,100253.17
2023-09-04T20:30:51.218Z,100257.08
2023-09-04T20:33:24.040Z,100258.95
2023-09-04T20:35:53.216Z,100263.81
2023-09-04T20:38:22.062Z,100265.32
2023-09-04T20:40:53.712Z,100265.59
2023-09-04T20:43:22.132Z,100268.58
2023-09-04T20:45:50.280Z,100267.55
2023-09-04T20:48:18.264Z,100262.78
2023-09-04T20:50:46.304Z,100262.79
2023-09-04T20:53:15.303Z,100268.65
2023-09-04T20:55:44.099Z,100271.32
2023-09-04T20:58:12.043Z,100267.40
2023-09-04T21:00:43.272Z,100267.73
2023-09-04T21:03:14.413Z,100267.45
2023-09-04T21:05:43.408Z,100264.58
2023-09-04T21:08:11.631Z,100263.12
2023-09-04T21:10:40.363Z,100262.09
2023-09-04T21:13:26.978Z,100255.68
2023-09-04T21:16:13.630Z,100250.58
2023-09-04T21:19:00.103Z,100249.54
2023-09-04T21:21:46.752Z,100244.40
2023-09-04T21:24:33.402Z,100246.71
2023-09-04T21:27:19.630Z,100246.90
2023-09-04T21:30:05.912Z,100245.14
2023-09-04T21:32:52.300Z,100245.45
2023-09-04T21:35:38.877Z,100244.93
2023-09-04T21:38:25.368Z,100240.68
2023-09-04T21:41:11.733Z,100246.70
2023-09-04T21:43:58.238Z,100242.92
2023-09-04T21:46:44.776Z,100242.84
2023-09-04T21:49:31.317Z,100241.47
2023-09-04T21:52:17.467Z,100244.35
2023-09-04T21:55:04.100Z,100245.42
2023-09-04T21:57:50.400Z,100244.29
2023-09-04T22:00:37.082Z,100244.90
2023-09-04T22:03:26.181Z,100241.92
2023-09-04T22:06:19.263Z,100236.45
2023-09-04T22:09:05.580Z,100236.35
2023-09-04T22:11:51.925Z,100232.45
2023-09-04T22:14:38.477Z,100230.30
2023-09-04T22:17:24.890Z,100234.52
2023-09-04T22:20:11.445Z,100234.05
2023-09-04T22:22:58.002Z,100229.55
2023-09-04T22:25:44.283Z,100229.67
2023-09-04T22:28:30.766Z,100230.34
2023-09-04T22:31:17.102Z,100227.05
2023-09-04T22:34:03.643Z,100224.35
2023-09-04T22:36:49.926Z,100225.45
2023-09-04T22:39:36.503Z,100223.94
2023-09-04T22:42:23.469Z,100219.45
2023-09-04T22:45:10.017Z,100217.98
2023-09-04T22:47:56.564Z,100212.42
2023-09-04T22:50:43.150Z,100208.85
2023-09-04T22:53:29.664Z,100206.59
2023-09-04T22:56:16.093Z,100205.42
2023-09-04T22:59:02.306Z,100206.63
2023-09-04T23:01:51.805Z,100204.34
2023-09-04T23:04:38.573Z,100207.65
2023-09-04T23:07:24.964Z,100205.34
2023-09-04T23:10:11.248Z,100201.84
2023-09-04T23:12:57.493Z,100204.06
2023-09-04T23:15:44.363Z,100201.84
2023-09-04T23:18:30.780Z,100201.62
2023-09-04T23:21:04.363Z,100202.86
2023-09-04T23:23:36.412Z,100206.71
2023-09-04T23:26:08.150Z,100209.20
2023-09-04T23:28:36.168Z,100209.73
2023-09-04T23:31:05.057Z,100211.31
2023-09-04T23:33:39.253Z,100213.19
2023-09-04T23:36:36.877Z,100214.20
2023-09-04T23:39:08.263Z,100214.44
2023-09-04T23:41:55.651Z,100211.03
2023-09-04T23:44:42.085Z,100204.84
2023-09-04T23:47:11.377Z,100202.95
2023-09-04T23:49:39.530Z,100205.06
2023-09-04T23:52:10.430Z,100205.92
2023-09-04T23:54:39.158Z,100210.33
2023-09-04T23:57:09.162Z,100206.95
2023-09-04T23:59:41.000Z,100206.29
